createdAt,value
2018-09-01T00:02:04.619Z,12.00
2018-09-01T00:04:33.514Z,11.97
2018-09-01T00:07:02.315Z,12.12
2018-09-01T00:09:34.081Z,11.94
2018-09-01T00:12:03.691Z,12.13
2018-09-01T00:14:32.571Z,11.95
2018-09-01T00:17:01.419Z,11.93
2018-09-01T00:19:30.250Z,11.97
2018-09-01T00:21:59.064Z,11.83
2018-09-01T00:24:27.897Z,11.90
2018-09-01T00:26:56.672Z,11.95
2018-09-01T00:29:25.561Z,11.92
2018-09-01T00:31:54.414Z,11.89
2018-09-01T00:34:23.497Z,11.81
2018-09-01T00:36:52.283Z,11.72
2018-09-01T00:39:21.164Z,11.77
2018-09-01T00:41:50.019Z,11.92
2018-09-01T00:44:18.776Z,11.89
2018-09-01T00:46:47.636Z,11.87
2018-09-01T00:49:16.411Z,11.82
2018-09-01T00:51:45.233Z,11.79
2018-09-01T00:54:14.102Z,11.87
2018-09-01T00:56:42.926Z,11.86
2018-09-01T00:59:11.996Z,11.83
2018-09-01T01:01:41.138Z,11.80
2018-09-01T01:04:09.935Z,11.75
2018-09-01T01:06:38.847Z,11.81
2018-09-01T01:09:08.268Z,11.53
2018-09-01T01:11:37.396Z,11.80
2018-09-01T01:14:06.171Z,11.81
2018-09-01T01:16:35.005Z,11.83
2018-09-01T01:19:03.895Z,11.70
2018-09-01T01:21:33.038Z,11.79
2018-09-01T01:24:01.788Z,11.64
2018-09-01T01:26:30.637Z,11.62
2018-09-01T01:28:59.423Z,11.66
2018-09-01T01:31:28.367Z,11.73
2018-09-01T01:33:57.168Z,11.79
2018-09-01T01:36:25.987Z,11.85
2018-09-01T01:38:54.774Z,11.82
2018-09-01T01:41:23.589Z,11.84
2018-09-01T01:43:52.469Z,11.83
2018-09-01T01:46:21.276Z,11.70
2018-09-01T01:48:50.055Z,11.71
2018-09-01T01:51:18.879Z,11.74
2018-09-01T01:53:47.731Z,11.68
2018-09-01T01:56:16.572Z,11.70
2018-09-01T01:58:45.388Z,11.70
2018-09-01T02:01:14.184Z,11.70
2018-09-01T02:03:43.076Z,11.55
2018-09-01T02:06:11.879Z,11.65
2018-09-01T02:08:40.728Z,11.56
2018-09-01T02:11:09.480Z,11.68
2018-09-01T02:13:38.345Z,11.55
2018-09-01T02:16:07.116Z,11.52
2018-09-01T02:18:35.969Z,11.54
2018-09-01T02:21:05.156Z,11.62
2018-09-01T02:23:34.007Z,11.65
2018-09-01T02:26:02.779Z,11.59
2018-09-01T02:28:31.768Z,11.65
2018-09-01T02:31:00.546Z,11.70
2018-09-01T02:33:29.553Z,11.75
2018-09-01T02:35:58.335Z,11.74
2018-09-01T02:38:27.174Z,11.83
2018-09-01T02:40:55.954Z,11.93
2018-09-01T02:43:24.721Z,11.79
2018-09-01T02:45:53.611Z,11.79
2018-09-01T02:48:22.397Z,11.92
2018-09-01T02:50:51.235Z,11.82
2018-09-01T02:53:20.011Z,11.80
2018-09-01T02:55:48.853Z,11.82
2018-09-01T02:58:17.746Z,11.83
2018-09-01T03:00:51.070Z,11.74
2018-09-01T03:03:19.924Z,11.94
2018-09-01T03:05:48.780Z,11.76
2018-09-01T03:08:17.678Z,12.00
2018-09-01T03:10:46.563Z,11.95
2018-09-01T03:13:15.356Z,11.98
2018-09-01T03:15:44.245Z,11.92
2018-09-01T03:18:13.027Z,11.96
2018-09-01T03:20:41.892Z,11.83
2018-09-01T03:23:10.743Z,11.90
2018-09-01T03:25:39.560Z,11.88
2018-09-01T03:28:08.372Z,11.93
2018-09-01T03:30:37.271Z,12.02
2018-09-01T03:33:06.148Z,12.11
2018-09-01T03:35:35.088Z,11.86
2018-09-01T03:38:03.865Z,12.02
2018-09-01T03:40:32.665Z,11.94
2018-09-01T03:43:01.479Z,11.87
2018-09-01T03:45:30.628Z,12.02
2018-09-01T03:47:59.645Z,11.83
2018-09-01T03:50:28.427Z,12.06
2018-09-01T03:52:57.257Z,12.04
2018-09-01T03:55:26.028Z,12.03
2018-09-01T03:57:54.880Z,11.96
2018-09-01T04:00:27.235Z,11.96
2018-09-01T04:02:56.992Z,11.82
2018-09-01T04:05:26.027Z,11.83
2018-09-01T04:07:54.862Z,12.07
2018-09-01T04:10:24.428Z,12.07
2018-09-01T04:12:53.302Z,12.04
2018-09-01T04:15:22.070Z,12.07
2018-09-01T04:17:50.886Z,12.00
2018-09-01T04:20:19.666Z,12.02
2018-09-01T04:22:48.487Z,12.05
2018-09-01T04:25:17.345Z,11.93
2018-09-01T04:27:46.232Z,11.94
2018-09-01T04:30:14.980Z,12.00
2018-09-01T04:32:43.836Z,11.88
2018-09-01T04:35:12.996Z,12.02
2018-09-01T04:37:42.394Z,11.86
2018-09-01T04:40:11.188Z,12.06
2018-09-01T04:42:39.989Z,12.00
2018-09-01T04:45:10.174Z,12.09
2018-09-01T04:47:38.989Z,12.03
2018-09-01T04:50:08.319Z,11.91
2018-09-01T04:52:37.133Z,12.00
2018-09-01T04:55:05.993Z,11.95
2018-09-01T04:57:34.760Z,11.92
2018-09-01T05:00:03.814Z,11.99
2018-09-01T05:02:32.680Z,12.16
2018-09-01T05:05:01.481Z,11.93
2018-09-01T05:07:30.274Z,12.04
2018-09-01T05:09:59.371Z,12.14
2018-09-01T05:12:28.124Z,12.29
2018-09-01T05:14:57.059Z,12.19
2018-09-01T05:17:25.806Z,12.31
2018-09-01T05:19:54.679Z,12.27
2018-09-01T05:22:23.489Z,12.35
2018-09-01T05:24:52.389Z,12.23
2018-09-01T05:27:21.247Z,12.26
2018-09-01T05:29:50.064Z,12.21
2018-09-01T05:32:18.889Z,12.23
2018-09-01T05:34:47.676Z,12.29
2018-09-01T05:37:16.480Z,12.30
2018-09-01T05:39:45.444Z,12.35
2018-09-01T05:42:14.223Z,12.53
2018-09-01T05:44:43.047Z,12.63
2018-09-01T05:47:11.807Z,12.56
2018-09-01T05:49:40.600Z,12.60
2018-09-01T05:52:09.482Z,12.77
2018-09-01T05:54:39.072Z,12.96
2018-09-01T05:57:08.601Z,13.13
2018-09-01T05:59:38.186Z,13.38
2018-09-01T06:02:07.108Z,13.59
2018-09-01T06:04:36.601Z,13.62
2018-09-01T06:07:05.983Z,13.77
2018-09-01T06:09:34.912Z,13.84
2018-09-01T06:12:04.136Z,13.69
2018-09-01T06:14:32.905Z,13.81
2018-09-01T06:17:01.795Z,13.87
2018-09-01T06:19:30.914Z,13.95
2018-09-01T06:21:59.732Z,13.86
2018-09-01T06:24:28.536Z,13.77
2018-09-01T06:26:58.140Z,14.20
2018-09-01T06:29:27.040Z,14.34
2018-09-01T06:32:00.439Z,14.37
2018-09-01T06:34:29.730Z,14.26
2018-09-01T06:36:58.548Z,14.60
2018-09-01T06:39:28.059Z,14.63
2018-09-01T06:41:56.946Z,14.57
2018-09-01T06:44:25.775Z,14.84
2018-09-01T06:46:54.581Z,14.77
2018-09-01T06:49:23.445Z,14.69
2018-09-01T06:51:52.514Z,14.61
2018-09-01T06:54:21.324Z,14.82
2018-09-01T06:56:50.162Z,14.97
2018-09-01T06:59:18.977Z,15.06
2018-09-01T07:01:47.835Z,14.93
2018-09-01T07:04:16.670Z,15.36
2018-09-01T07:06:45.532Z,15.36
2018-09-01T07:09:14.326Z,15.04
2018-09-01T07:11:43.249Z,15.53
2018-09-01T07:14:12.093Z,15.73
2018-09-01T07:16:40.919Z,15.45
2018-09-01T07:19:09.841Z,15.75
2018-09-01T07:21:38.632Z,15.64
2018-09-01T07:24:07.483Z,15.83
2018-09-01T07:26:36.264Z,15.92
2018-09-01T07:29:05.180Z,15.87
2018-09-01T07:31:34.326Z,16.05
2018-09-01T07:34:03.445Z,16.22
2018-09-01T07:36:32.238Z,16.18
2018-09-01T07:39:01.059Z,16.27
2018-09-01T07:41:29.816Z,16.34
2018-09-01T07:43:58.664Z,16.65
2018-09-01T07:46:27.459Z,16.83
2018-09-01T07:48:56.350Z,16.85
2018-09-01T07:51:25.095Z,16.93
2018-09-01T07:53:53.960Z,17.26
2018-09-01T07:56:22.857Z,17.69
2018-09-01T07:58:51.688Z,17.89
2018-09-01T08:01:20.552Z,17.83
2018-09-01T08:03:49.536Z,18.12
2018-09-01T08:06:18.392Z,18.03
2018-09-01T08:08:47.482Z,18.40
2018-09-01T08:11:16.328Z,18.29
2018-09-01T08:13:45.204Z,18.65
2018-09-01T08:16:14.100Z,18.77
2018-09-01T08:18:42.991Z,18.95
2018-09-01T08:21:11.884Z,18.86
2018-09-01T08:23:40.664Z,18.97
2018-09-01T08:26:09.532Z,18.81
2018-09-01T08:28:38.292Z,18.52
2018-09-01T08:31:07.112Z,18.56
2018-09-01T08:33:36.140Z,18.60
2018-09-01T08:36:07.053Z,18.84
2018-09-01T08:38:36.780Z,18.45
2018-09-01T08:41:05.686Z,18.37
2018-09-01T08:43:34.767Z,18.72
2018-09-01T08:46:03.730Z,19.28
2018-09-01T08:48:32.592Z,19.73
2018-09-01T08:51:01.731Z,19.22
2018-09-01T08:53:30.559Z,19.44
2018-09-01T08:55:59.687Z,19.56
2018-09-01T08:58:28.597Z,19.58
2018-09-01T09:00:57.417Z,19.41
2018-09-01T09:03:26.267Z,19.82
2018-09-01T09:05:55.037Z,19.75
2018-09-01T09:08:23.864Z,19.67
2018-09-01T09:10:52.707Z,19.75
2018-09-01T09:13:21.591Z,19.61
2018-09-01T09:15:50.398Z,19.22
2018-09-01T09:18:19.258Z,19.17
2018-09-01T09:20:48.127Z,19.48
2018-09-01T09:23:17.040Z,19.17
2018-09-01T09:25:45.867Z,19.05
2018-09-01T09:28:14.694Z,18.99
2018-09-01T09:30:43.552Z,19.15
2018-09-01T09:33:12.456Z,18.89
2018-09-01T09:35:41.317Z,19.19
2018-09-01T09:38:10.102Z,19.40
2018-09-01T09:40:38.976Z,19.41
2018-09-01T09:43:07.800Z,19.58
2018-09-01T09:45:36.636Z,19.55
2018-09-01T09:48:05.480Z,19.49
2018-09-01T09:50:34.300Z,19.31
2018-09-01T09:53:03.518Z,19.17
2018-09-01T09:55:32.303Z,19.29
2018-09-01T09:58:01.063Z,19.60
2018-09-01T10:00:35.542Z,19.69
2018-09-01T10:03:04.386Z,20.01
2018-09-01T10:05:33.327Z,20.04
2018-09-01T10:08:02.168Z,19.83
2018-09-01T10:10:31.123Z,19.66
2018-09-01T10:12:59.876Z,19.58
2018-09-01T10:15:28.711Z,19.61
2018-09-01T10:17:57.477Z,19.57
2018-09-01T10:20:26.395Z,19.79
2018-09-01T10:22:55.259Z,19.48
2018-09-01T10:25:24.098Z,19.39
2018-09-01T10:27:52.893Z,19.46
2018-09-01T10:30:21.733Z,19.34
2018-09-01T10:32:50.573Z,19.35
2018-09-01T10:35:19.491Z,19.16
2018-09-01T10:37:48.627Z,19.46
2018-09-01T10:40:17.455Z,19.89
2018-09-01T10:42:46.268Z,19.60
2018-09-01T10:45:15.061Z,19.85
2018-09-01T10:47:44.241Z,19.98
2018-09-01T10:50:13.072Z,19.93
2018-09-01T10:52:41.906Z,19.73
2018-09-01T10:55:10.669Z,19.83
2018-09-01T10:57:39.505Z,19.76
2018-09-01T11:00:08.720Z,19.55
2018-09-01T11:02:37.502Z,19.45
2018-09-01T11:05:06.393Z,19.37
2018-09-01T11:07:35.156Z,19.48
2018-09-01T11:10:04.089Z,19.54
2018-09-01T11:12:33.003Z,19.46
2018-09-01T11:15:01.771Z,19.60
2018-09-01T11:17:30.585Z,19.92
2018-09-01T11:19:59.564Z,20.01
2018-09-01T11:22:28.527Z,20.09
2018-09-01T11:24:57.341Z,20.05
2018-09-01T11:27:26.176Z,20.09
2018-09-01T11:29:54.937Z,20.24
2018-09-01T11:32:23.775Z,20.14
2018-09-01T11:34:52.519Z,19.96
2018-09-01T11:37:21.323Z,19.80
2018-09-01T11:39:50.129Z,20.04
2018-09-01T11:42:18.956Z,19.99
2018-09-01T11:44:47.776Z,20.13
2018-09-01T11:47:16.591Z,20.15
2018-09-01T11:49:45.534Z,20.00
2018-09-01T11:52:14.359Z,20.19
2018-09-01T11:54:43.172Z,20.25
2018-09-01T11:57:11.918Z,20.68
2018-09-01T11:59:40.723Z,21.26
2018-09-01T12:02:16.386Z,21.19
2018-09-01T12:04:45.151Z,21.22
2018-09-01T12:07:13.938Z,21.10
2018-09-01T12:09:42.780Z,21.33
2018-09-01T12:12:11.627Z,21.42
2018-09-01T12:14:40.470Z,21.44
2018-09-01T12:17:09.586Z,21.59
2018-09-01T12:19:38.452Z,21.53
2018-09-01T12:22:07.393Z,21.14
2018-09-01T12:24:36.245Z,21.29
2018-09-01T12:27:05.167Z,20.64
2018-09-01T12:29:34.032Z,20.67
2018-09-01T12:32:03.035Z,20.91
2018-09-01T12:34:32.480Z,20.97
2018-09-01T12:37:01.455Z,21.05
2018-09-01T12:39:30.268Z,21.07
2018-09-01T12:41:59.162Z,20.99
2018-09-01T12:44:28.042Z,20.80
2018-09-01T12:46:56.863Z,20.59
2018-09-01T12:49:25.674Z,20.40
2018-09-01T12:51:54.494Z,20.73
2018-09-01T12:54:23.270Z,20.47
2018-09-01T12:56:52.111Z,20.71
2018-09-01T12:59:20.972Z,20.86
2018-09-01T13:01:49.852Z,20.96
2018-09-01T13:04:18.627Z,20.92
2018-09-01T13:06:47.466Z,20.74
2018-09-01T13:09:16.242Z,20.69
2018-09-01T13:11:45.352Z,20.49
2018-09-01T13:14:14.234Z,20.80
2018-09-01T13:16:43.018Z,21.28
2018-09-01T13:19:12.143Z,21.04
2018-09-01T13:21:40.949Z,21.39
2018-09-01T13:24:09.729Z,21.34
2018-09-01T13:26:38.651Z,21.23
2018-09-01T13:29:07.407Z,21.27
2018-09-01T13:31:36.377Z,21.31
2018-09-01T13:34:05.371Z,21.19
2018-09-01T13:36:34.147Z,21.25
2018-09-01T13:39:04.173Z,21.30
2018-09-01T13:41:32.960Z,21.29
2018-09-01T13:44:01.812Z,21.24
2018-09-01T13:46:30.568Z,21.01
2018-09-01T13:48:59.386Z,21.37
2018-09-01T13:51:28.266Z,21.40
2018-09-01T13:53:57.056Z,21.37
2018-09-01T13:56:25.839Z,21.59
2018-09-01T13:58:54.647Z,21.62
2018-09-01T14:01:23.395Z,21.68
2018-09-01T14:03:52.238Z,21.68
2018-09-01T14:06:20.977Z,21.62
2018-09-01T14:08:49.777Z,21.67
2018-09-01T14:11:18.606Z,21.75
2018-09-01T14:13:47.651Z,21.44
2018-09-01T14:16:16.490Z,21.71
2018-09-01T14:18:45.316Z,21.98
2018-09-01T14:21:14.099Z,22.38
2018-09-01T14:23:42.888Z,22.18
2018-09-01T14:26:11.725Z,21.93
2018-09-01T14:28:40.902Z,21.95
2018-09-01T14:31:09.679Z,22.32
2018-09-01T14:33:38.450Z,22.36
2018-09-01T14:36:07.604Z,22.28
2018-09-01T14:38:36.370Z,22.04
2018-09-01T14:41:05.434Z,21.87
2018-09-01T14:43:34.172Z,21.85
2018-09-01T14:46:02.967Z,22.21
2018-09-01T14:48:31.799Z,22.10
2018-09-01T14:51:00.639Z,22.40
2018-09-01T14:53:29.479Z,22.31
2018-09-01T14:55:58.348Z,22.48
2018-09-01T14:58:27.107Z,22.65
2018-09-01T15:00:55.894Z,22.28
2018-09-01T15:03:24.655Z,22.45
2018-09-01T15:05:53.550Z,22.52
2018-09-01T15:08:22.343Z,21.99
2018-09-01T15:10:51.181Z,22.32
2018-09-01T15:13:19.931Z,22.26
2018-09-01T15:15:48.825Z,21.91
2018-09-01T15:18:17.642Z,22.09
2018-09-01T15:20:46.473Z,21.93
2018-09-01T15:23:15.202Z,21.90
2018-09-01T15:25:44.214Z,21.56
2018-09-01T15:28:13.003Z,21.60
2018-09-01T15:30:41.880Z,21.50
2018-09-01T15:33:10.694Z,21.43
2018-09-01T15:35:39.508Z,21.39
2018-09-01T15:38:08.328Z,21.48
2018-09-01T15:40:37.219Z,21.29
2018-09-01T15:43:06.344Z,21.42
2018-09-01T15:45:37.998Z,21.24
2018-09-01T15:48:06.971Z,21.26
2018-09-01T15:50:36.139Z,21.16
2018-09-01T15:53:05.103Z,21.14
2018-09-01T15:55:33.972Z,21.25
2018-09-01T15:58:02.791Z,21.32
2018-09-01T16:00:31.560Z,21.31
2018-09-01T16:03:00.695Z,21.16
2018-09-01T16:05:29.477Z,21.07
2018-09-01T16:07:58.377Z,20.87
2018-09-01T16:10:27.186Z,20.62
2018-09-01T16:12:55.992Z,20.75
2018-09-01T16:15:24.744Z,20.80
2018-09-01T16:17:53.539Z,20.88
2018-09-01T16:20:22.365Z,20.78
2018-09-01T16:22:51.175Z,20.82
2018-09-01T16:25:19.947Z,20.84
2018-09-01T16:27:48.804Z,20.89
2018-09-01T16:30:17.550Z,20.76
2018-09-01T16:32:46.379Z,20.69
2018-09-01T16:35:15.213Z,20.59
2018-09-01T16:37:44.091Z,20.48
2018-09-01T16:40:12.955Z,20.47
2018-09-01T16:42:41.723Z,20.42
2018-09-01T16:45:11.549Z,20.32
2018-09-01T16:47:40.352Z,20.35
2018-09-01T16:50:09.220Z,20.22
2018-09-01T16:52:38.014Z,20.25
2018-09-01T16:55:07.248Z,20.18
2018-09-01T16:57:36.128Z,20.17
2018-09-01T17:00:05.747Z,20.12
2018-09-01T17:02:34.530Z,20.07
2018-09-01T17:05:03.752Z,19.93
2018-09-01T17:07:32.557Z,19.80
2018-09-01T17:10:01.496Z,19.85
2018-09-01T17:12:30.347Z,19.74
2018-09-01T17:14:59.565Z,19.73
2018-09-01T17:17:28.329Z,19.58
2018-09-01T17:19:57.231Z,19.36
2018-09-01T17:22:26.059Z,19.34
2018-09-01T17:24:54.903Z,19.31
2018-09-01T17:27:23.751Z,19.27
2018-09-01T17:29:52.516Z,19.26
2018-09-01T17:32:21.367Z,19.02
2018-09-01T17:34:50.215Z,19.06
2018-09-01T17:37:19.031Z,19.07
2018-09-01T17:39:47.795Z,18.96
2018-09-01T17:42:16.645Z,18.87
2018-09-01T17:44:45.531Z,18.71
2018-09-01T17:47:14.411Z,18.51
2018-09-01T17:49:43.176Z,18.60
2018-09-01T17:52:12.062Z,18.36
2018-09-01T17:54:40.919Z,18.48
2018-09-01T17:57:09.815Z,18.26
2018-09-01T17:59:38.812Z,18.13
2018-09-01T18:02:07.822Z,18.12
2018-09-01T18:04:36.636Z,17.92
2018-09-01T18:07:05.627Z,17.86
2018-09-01T18:09:34.482Z,17.70
2018-09-01T18:12:03.432Z,17.73
2018-09-01T18:14:32.293Z,17.56
2018-09-01T18:17:01.129Z,17.62
2018-09-01T18:19:29.944Z,17.62
2018-09-01T18:21:58.772Z,17.38
2018-09-01T18:24:28.329Z,17.36
2018-09-01T18:26:57.111Z,17.58
2018-09-01T18:29:25.982Z,17.33
2018-09-01T18:31:55.043Z,17.29
2018-09-01T18:34:24.060Z,17.08
2018-09-01T18:36:53.111Z,17.16
2018-09-01T18:39:22.530Z,17.04
2018-09-01T18:41:51.366Z,16.91
2018-09-01T18:44:21.730Z,16.88
2018-09-01T18:46:51.058Z,16.60
2018-09-01T18:49:19.937Z,16.49
2018-09-01T18:51:48.802Z,16.48
2018-09-01T18:54:17.657Z,16.58
2018-09-01T18:56:47.133Z,16.55
2018-09-01T18:59:16.431Z,16.68
2018-09-01T19:01:45.272Z,16.45
2018-09-01T19:04:14.135Z,16.52
2018-09-01T19:06:42.997Z,16.38
2018-09-01T19:09:11.925Z,16.18
2018-09-01T19:11:40.795Z,16.15
2018-09-01T19:14:13.358Z,16.08
2018-09-01T19:16:43.260Z,15.92
2018-09-01T19:19:12.136Z,15.92
2018-09-01T19:21:41.044Z,16.06
2018-09-01T19:24:10.015Z,15.93
2018-09-01T19:26:38.870Z,15.84
2018-09-01T19:29:07.670Z,15.96
2018-09-01T19:31:36.520Z,16.03
2018-09-01T19:34:05.586Z,15.98
2018-09-01T19:36:34.710Z,15.88
2018-09-01T19:39:04.466Z,15.86
2018-09-01T19:41:33.284Z,15.59
2018-09-01T19:44:02.071Z,15.71
2018-09-01T19:46:30.932Z,15.76
2018-09-01T19:48:59.811Z,15.49
2018-09-01T19:51:28.654Z,15.51
2018-09-01T19:53:57.457Z,15.55
2018-09-01T19:56:26.271Z,15.25
2018-09-01T19:58:55.092Z,15.34
2018-09-01T20:01:23.985Z,15.52
2018-09-01T20:03:53.124Z,15.20
2018-09-01T20:06:21.910Z,15.26
2018-09-01T20:08:50.811Z,15.25
2018-09-01T20:11:19.710Z,15.07
2018-09-01T20:13:48.940Z,15.20
2018-09-01T20:16:17.767Z,15.03
2018-09-01T20:18:46.524Z,14.98
2018-09-01T20:21:15.375Z,15.06
2018-09-01T20:23:44.147Z,14.85
2018-09-01T20:26:13.067Z,14.77
2018-09-01T20:28:41.940Z,14.94
2018-09-01T20:31:10.715Z,14.86
2018-09-01T20:33:39.563Z,14.80
2018-09-01T20:36:14.393Z,14.86
2018-09-01T20:38:43.637Z,14.74
2018-09-01T20:41:12.530Z,14.77
2018-09-01T20:43:41.338Z,14.76
2018-09-01T20:46:10.132Z,14.73
2018-09-01T20:48:39.022Z,14.68
2018-09-01T20:51:07.887Z,14.61
2018-09-01T20:53:36.715Z,14.48
2018-09-01T20:56:05.696Z,14.30
2018-09-01T20:58:34.543Z,14.45
2018-09-01T21:01:03.356Z,14.28
2018-09-01T21:03:32.295Z,14.27
2018-09-01T21:06:01.143Z,14.31
2018-09-01T21:08:30.776Z,14.37
2018-09-01T21:10:59.539Z,14.31
2018-09-01T21:13:28.368Z,14.40
2018-09-01T21:15:57.240Z,14.36
2018-09-01T21:18:26.068Z,14.31
2018-09-01T21:20:54.850Z,14.12
2018-09-01T21:23:25.370Z,14.08
2018-09-01T21:25:55.790Z,14.08
2018-09-01T21:28:24.784Z,14.06
2018-09-01T21:30:53.959Z,14.11
2018-09-01T21:33:22.781Z,14.17
2018-09-01T21:35:51.596Z,14.17
2018-09-01T21:38:20.399Z,14.26
2018-09-01T21:40:49.327Z,14.39
2018-09-01T21:43:18.103Z,14.16
2018-09-01T21:45:46.917Z,14.04
2018-09-01T21:48:15.695Z,13.95
2018-09-01T21:50:44.543Z,13.99
2018-09-01T21:53:13.390Z,13.94
2018-09-01T21:55:42.291Z,14.04
2018-09-01T21:58:11.065Z,13.97
2018-09-01T22:00:44.548Z,13.86
2018-09-01T22:03:13.387Z,13.85
2018-09-01T22:05:42.772Z,13.85
2018-09-01T22:08:11.627Z,13.85
2018-09-01T22:10:40.478Z,13.77
2018-09-01T22:13:09.575Z,13.88
2018-09-01T22:15:38.464Z,13.96
2018-09-01T22:18:07.338Z,13.92
2018-09-01T22:20:36.272Z,13.90
2018-09-01T22:23:05.504Z,13.90
2018-09-01T22:25:34.327Z,13.55
2018-09-01T22:28:03.294Z,13.38
2018-09-01T22:30:32.350Z,13.47
2018-09-01T22:33:01.137Z,13.50
2018-09-01T22:35:30.273Z,13.48
2018-09-01T22:37:59.090Z,13.56
2018-09-01T22:40:27.936Z,13.34
2018-09-01T22:42:56.899Z,12.99
2018-09-01T22:45:25.762Z,13.00
2018-09-01T22:47:54.671Z,13.09
2018-09-01T22:50:23.437Z,13.09
2018-09-01T22:52:52.258Z,13.13
2018-09-01T22:55:21.120Z,12.99
2018-09-01T22:57:50.185Z,13.06
2018-09-01T23:00:18.968Z,12.96
2018-09-01T23:02:47.879Z,12.99
2018-09-01T23:05:16.659Z,12.94
2018-09-01T23:07:45.568Z,12.75
2018-09-01T23:10:14.362Z,12.73
2018-09-01T23:12:43.200Z,12.77
2018-09-01T23:15:12.007Z,12.69
2018-09-01T23:17:40.778Z,12.67
2018-09-01T23:20:09.676Z,12.70
2018-09-01T23:22:38.458Z,12.81
2018-09-01T23:25:07.335Z,12.75
2018-09-01T23:27:36.176Z,12.73
2018-09-01T23:30:05.143Z,12.79
2018-09-01T23:32:33.994Z,12.84
2018-09-01T23:35:02.844Z,12.81
2018-09-01T23:37:31.634Z,12.70
2018-09-01T23:40:00.582Z,12.41
2018-09-01T23:42:29.400Z,12.26
2018-09-01T23:45:01.179Z,12.25
2018-09-01T23:47:29.933Z,12.26
2018-09-01T23:49:58.818Z,12.35
2018-09-01T23:52:27.610Z,12.39
2018-09-01T23:54:56.422Z,12.56
2018-09-01T23:57:25.263Z,12.51
2018-09-01T23:59:54.110Z,12.58
